sensor_id;sensor_type;location;lat;lon;timestamp;P1;durP1;ratioP1;P2;durP2;ratioP2
7605;SDS011;3844;53.360;9.738;2023-06-19T00:00:20;9.13;;;5.90;;
7605;SDS011;3844;53.360;9.738;2023-06-19T00:02:21;10.23;;;6.80;;
7605;SDS011;3844;53.360;9.738;2023-06-19T00:04:22;9.30;;;6.60;;
7605;SDS011;3844;53.360;9.738;2023-06-19T00:06:23;10.35;;;6.93;;
7605;SDS011;3844;53.360;9.738;2023-06-19T00:08:23;10.18;;;6.88;;
7605;SDS011;3844;53.360;9.738;2023-06-19T00:10:24;9.10;;;6.68;;
7605;SDS011;3844;53.360;9.738;2023-06-19T00:12:25;10.07;;;6.72;;
7605;SDS011;3844;53.360;9.738;2023-06-19T00:14:26;10.73;;;7.20;;
7605;SDS011;3844;53.360;9.738;2023-06-19T00:16:27;11.52;;;6.47;;
7605;SDS011;3844;53.360;9.738;2023-06-19T00:18:28;9.18;;;6.40;;
7605;SDS011;3844;53.360;9.738;2023-06-19T00:20:29;9.43;;;7.07;;
7605;SDS011;3844;53.360;9.738;2023-06-19T00:22:29;8.77;;;6.65;;
7605;SDS011;3844;53.360;9.738;2023-06-19T00:24:30;9.15;;;6.40;;
7605;SDS011;3844;53.360;9.738;2023-06-19T00:26:31;9.85;;;6.75;;
7605;SDS011;3844;53.360;9.738;2023-06-19T00:28:32;9.63;;;6.65;;
7605;SDS011;3844;53.360;9.738;2023-06-19T00:30:32;9.80;;;6.75;;
7605;SDS011;3844;53.360;9.738;2023-06-19T00:32:33;8.30;;;6.70;;
7605;SDS011;3844;53.360;9.738;2023-06-19T00:34:46;9.70;;;7.10;;
7605;SDS011;3844;53.360;9.738;2023-06-19T00:36:46;10.95;;;6.43;;
7605;SDS011;3844;53.360;9.738;2023-06-19T00:38:47;8.73;;;6.53;;
7605;SDS011;3844;53.360;9.738;2023-06-19T00:40:48;9.95;;;6.60;;
7605;SDS011;3844;53.360;9.738;2023-06-19T00:42:48;9.25;;;6.93;;
7605;SDS011;3844;53.360;9.738;2023-06-19T00:44:49;12.55;;;7.00;;
7605;SDS011;3844;53.360;9.738;2023-06-19T00:46:55;9.23;;;6.40;;
7605;SDS011;3844;53.360;9.738;2023-06-19T00:48:57;8.75;;;6.63;;
7605;SDS011;3844;53.360;9.738;2023-06-19T00:50:59;9.80;;;6.93;;
7605;SDS011;3844;53.360;9.738;2023-06-19T00:53:00;11.48;;;6.90;;
7605;SDS011;3844;53.360;9.738;2023-06-19T00:57:05;11.00;;;6.75;;
7605;SDS011;3844;53.360;9.738;2023-06-19T00:59:11;9.32;;;7.00;;
7605;SDS011;3844;53.360;9.738;2023-06-19T01:01:16;9.70;;;7.20;;
7605;SDS011;3844;53.360;9.738;2023-06-19T01:03:17;10.43;;;7.30;;
7605;SDS011;3844;53.360;9.738;2023-06-19T01:05:17;9.45;;;7.05;;
7605;SDS011;3844;53.360;9.738;2023-06-19T01:07:22;9.55;;;6.60;;
7605;SDS011;3844;53.360;9.738;2023-06-19T01:09:29;9.95;;;7.00;;
7605;SDS011;3844;53.360;9.738;2023-06-19T01:11:37;8.63;;;6.53;;
7605;SDS011;3844;53.360;9.738;2023-06-19T01:13:50;10.68;;;7.60;;
7605;SDS011;3844;53.360;9.738;2023-06-19T01:15:58;10.07;;;7.07;;
7605;SDS011;3844;53.360;9.738;2023-06-19T01:17:59;8.73;;;6.65;;
7605;SDS011;3844;53.360;9.738;2023-06-19T01:20:02;8.82;;;6.53;;
7605;SDS011;3844;53.360;9.738;2023-06-19T01:22:10;9.07;;;6.93;;
7605;SDS011;3844;53.360;9.738;2023-06-19T01:24:21;9.45;;;6.45;;
7605;SDS011;3844;53.360;9.738;2023-06-19T01:26:23;8.45;;;6.22;;
7605;SDS011;3844;53.360;9.738;2023-06-19T01:28:27;9.02;;;6.60;;
7605;SDS011;3844;53.360;9.738;2023-06-19T01:30:28;9.52;;;6.65;;
7605;SDS011;3844;53.360;9.738;2023-06-19T01:34:52;9.25;;;6.93;;
7605;SDS011;3844;53.360;9.738;2023-06-19T01:36:56;10.68;;;7.45;;
7605;SDS011;3844;53.360;9.738;2023-06-19T01:38:58;9.50;;;7.10;;
7605;SDS011;3844;53.360;9.738;2023-06-19T01:41:00;8.88;;;6.82;;
7605;SDS011;3844;53.360;9.738;2023-06-19T01:43:02;10.30;;;6.68;;
7605;SDS011;3844;53.360;9.738;2023-06-19T01:45:04;8.93;;;6.95;;
7605;SDS011;3844;53.360;9.738;2023-06-19T01:47:07;10.63;;;7.18;;
7605;SDS011;3844;53.360;9.738;2023-06-19T01:49:11;10.63;;;7.28;;
7605;SDS011;3844;53.360;9.738;2023-06-19T01:51:12;10.18;;;7.10;;
7605;SDS011;3844;53.360;9.738;2023-06-19T01:53:13;10.02;;;7.40;;
7605;SDS011;3844;53.360;9.738;2023-06-19T01:55:14;9.63;;;6.95;;
7605;SDS011;3844;53.360;9.738;2023-06-19T01:57:15;9.90;;;7.15;;
7605;SDS011;3844;53.360;9.738;2023-06-19T01:59:16;10.77;;;7.32;;
7605;SDS011;3844;53.360;9.738;2023-06-19T02:01:17;10.95;;;7.60;;
7605;SDS011;3844;53.360;9.738;2023-06-19T02:03:18;11.10;;;7.78;;
7605;SDS011;3844;53.360;9.738;2023-06-19T02:05:18;11.02;;;7.90;;
7605;SDS011;3844;53.360;9.738;2023-06-19T02:07:19;11.95;;;8.00;;
7605;SDS011;3844;53.360;9.738;2023-06-19T02:09:20;11.10;;;7.50;;
7605;SDS011;3844;53.360;9.738;2023-06-19T02:11:20;11.80;;;7.90;;
7605;SDS011;3844;53.360;9.738;2023-06-19T02:13:21;10.60;;;7.40;;
7605;SDS011;3844;53.360;9.738;2023-06-19T02:15:22;10.80;;;7.70;;
7605;SDS011;3844;53.360;9.738;2023-06-19T02:17:22;10.75;;;7.28;;
7605;SDS011;3844;53.360;9.738;2023-06-19T02:19:23;10.70;;;7.65;;
7605;SDS011;3844;53.360;9.738;2023-06-19T02:21:24;11.68;;;7.32;;
7605;SDS011;3844;53.360;9.738;2023-06-19T02:23:24;10.80;;;7.90;;
7605;SDS011;3844;53.360;9.738;2023-06-19T02:25:25;11.93;;;8.45;;
7605;SDS011;3844;53.360;9.738;2023-06-19T02:27:26;12.80;;;7.63;;
7605;SDS011;3844;53.360;9.738;2023-06-19T02:29:26;12.32;;;7.53;;
7605;SDS011;3844;53.360;9.738;2023-06-19T02:31:29;8.32;;;6.15;;
7605;SDS011;3844;53.360;9.738;2023-06-19T02:33:30;11.68;;;8.23;;
7605;SDS011;3844;53.360;9.738;2023-06-19T02:35:32;10.50;;;7.55;;
7605;SDS011;3844;53.360;9.738;2023-06-19T02:37:33;10.98;;;8.00;;
7605;SDS011;3844;53.360;9.738;2023-06-19T02:39:35;10.80;;;7.72;;
7605;SDS011;3844;53.360;9.738;2023-06-19T02:41:36;11.10;;;8.20;;
7605;SDS011;3844;53.360;9.738;2023-06-19T02:43:39;10.35;;;7.78;;
7605;SDS011;3844;53.360;9.738;2023-06-19T02:45:40;7.90;;;6.45;;
7605;SDS011;3844;53.360;9.738;2023-06-19T02:47:41;10.25;;;7.47;;
7605;SDS011;3844;53.360;9.738;2023-06-19T02:49:42;10.38;;;8.00;;
7605;SDS011;3844;53.360;9.738;2023-06-19T02:51:43;9.93;;;8.13;;
7605;SDS011;3844;53.360;9.738;2023-06-19T02:53:44;10.48;;;7.55;;
7605;SDS011;3844;53.360;9.738;2023-06-19T02:55:45;10.93;;;7.97;;
7605;SDS011;3844;53.360;9.738;2023-06-19T02:57:45;13.32;;;7.35;;
7605;SDS011;3844;53.360;9.738;2023-06-19T02:59:47;11.82;;;8.30;;
7605;SDS011;3844;53.360;9.738;2023-06-19T03:01:48;10.23;;;7.88;;
7605;SDS011;3844;53.360;9.738;2023-06-19T03:03:49;11.98;;;8.20;;
7605;SDS011;3844;53.360;9.738;2023-06-19T03:05:52;10.68;;;8.20;;
7605;SDS011;3844;53.360;9.738;2023-06-19T03:07:52;10.50;;;7.80;;
7605;SDS011;3844;53.360;9.738;2023-06-19T03:09:53;12.20;;;8.35;;
7605;SDS011;3844;53.360;9.738;2023-06-19T03:11:54;10.55;;;7.95;;
7605;SDS011;3844;53.360;9.738;2023-06-19T03:13:55;11.23;;;7.70;;
7605;SDS011;3844;53.360;9.738;2023-06-19T03:15:56;11.85;;;8.50;;
7605;SDS011;3844;53.360;9.738;2023-06-19T03:17:57;10.68;;;8.10;;
7605;SDS011;3844;53.360;9.738;2023-06-19T03:19:58;10.73;;;7.90;;
7605;SDS011;3844;53.360;9.738;2023-06-19T03:21:58;9.85;;;7.72;;
7605;SDS011;3844;53.360;9.738;2023-06-19T03:23:59;13.88;;;8.63;;
7605;SDS011;3844;53.360;9.738;2023-06-19T03:26:00;13.30;;;8.27;;
7605;SDS011;3844;53.360;9.738;2023-06-19T03:28:01;9.52;;;7.60;;
7605;SDS011;3844;53.360;9.738;2023-06-19T03:30:03;10.70;;;8.15;;
7605;SDS011;3844;53.360;9.738;2023-06-19T03:32:08;10.82;;;8.02;;
7605;SDS011;3844;53.360;9.738;2023-06-19T03:34:09;13.05;;;8.70;;
7605;SDS011;3844;53.360;9.738;2023-06-19T03:36:09;10.52;;;7.72;;
7605;SDS011;3844;53.360;9.738;2023-06-19T03:38:10;11.77;;;8.25;;
7605;SDS011;3844;53.360;9.738;2023-06-19T03:40:11;11.10;;;7.80;;
7605;SDS011;3844;53.360;9.738;2023-06-19T03:42:13;11.35;;;8.15;;
7605;SDS011;3844;53.360;9.738;2023-06-19T03:44:14;11.77;;;7.72;;
7605;SDS011;3844;53.360;9.738;2023-06-19T03:46:15;9.73;;;7.70;;
7605;SDS011;3844;53.360;9.738;2023-06-19T03:48:16;10.50;;;7.22;;
7605;SDS011;3844;53.360;9.738;2023-06-19T03:50:17;10.95;;;7.88;;
7605;SDS011;3844;53.360;9.738;2023-06-19T03:52:18;8.70;;;6.90;;
7605;SDS011;3844;53.360;9.738;2023-06-19T03:54:18;10.10;;;7.75;;
7605;SDS011;3844;53.360;9.738;2023-06-19T03:56:19;10.70;;;7.50;;
7605;SDS011;3844;53.360;9.738;2023-06-19T03:58:20;10.35;;;8.23;;
7605;SDS011;3844;53.360;9.738;2023-06-19T04:00:21;9.73;;;7.38;;
7605;SDS011;3844;53.360;9.738;2023-06-19T04:02:22;9.68;;;7.80;;
7605;SDS011;3844;53.360;9.738;2023-06-19T04:04:23;10.70;;;8.07;;
7605;SDS011;3844;53.360;9.738;2023-06-19T04:06:24;10.27;;;7.47;;
7605;SDS011;3844;53.360;9.738;2023-06-19T04:08:25;10.55;;;8.10;;
7605;SDS011;3844;53.360;9.738;2023-06-19T04:10:25;11.20;;;7.65;;
7605;SDS011;3844;53.360;9.738;2023-06-19T04:12:26;9.43;;;7.72;;
7605;SDS011;3844;53.360;9.738;2023-06-19T04:14:27;10.20;;;8.20;;
7605;SDS011;3844;53.360;9.738;2023-06-19T04:16:28;10.32;;;7.78;;
7605;SDS011;3844;53.360;9.738;2023-06-19T04:18:29;11.52;;;7.68;;
7605;SDS011;3844;53.360;9.738;2023-06-19T04:20:29;10.13;;;7.88;;
7605;SDS011;3844;53.360;9.738;2023-06-19T04:22:30;10.88;;;8.15;;
7605;SDS011;3844;53.360;9.738;2023-06-19T04:24:31;10.43;;;7.63;;
7605;SDS011;3844;53.360;9.738;2023-06-19T04:26:32;10.65;;;7.75;;
7605;SDS011;3844;53.360;9.738;2023-06-19T04:28:32;10.15;;;8.35;;
7605;SDS011;3844;53.360;9.738;2023-06-19T04:30:33;11.75;;;8.05;;
7605;SDS011;3844;53.360;9.738;2023-06-19T04:32:34;10.80;;;8.30;;
7605;SDS011;3844;53.360;9.738;2023-06-19T04:34:35;10.77;;;8.32;;
7605;SDS011;3844;53.360;9.738;2023-06-19T04:36:35;10.73;;;7.93;;
7605;SDS011;3844;53.360;9.738;2023-06-19T04:38:37;10.25;;;7.90;;
7605;SDS011;3844;53.360;9.738;2023-06-19T04:40:37;10.43;;;8.13;;
7605;SDS011;3844;53.360;9.738;2023-06-19T04:42:38;10.10;;;7.95;;
7605;SDS011;3844;53.360;9.738;2023-06-19T04:44:39;11.30;;;8.15;;
7605;SDS011;3844;53.360;9.738;2023-06-19T04:46:42;10.13;;;7.90;;
7605;SDS011;3844;53.360;9.738;2023-06-19T04:48:46;10.20;;;8.15;;
7605;SDS011;3844;53.360;9.738;2023-06-19T04:50:51;11.80;;;8.40;;
7605;SDS011;3844;53.360;9.738;2023-06-19T04:52:52;11.77;;;8.27;;
7605;SDS011;3844;53.360;9.738;2023-06-19T04:54:53;11.02;;;8.30;;
7605;SDS011;3844;53.360;9.738;2023-06-19T04:56:54;11.05;;;8.25;;
7605;SDS011;3844;53.360;9.738;2023-06-19T04:58:55;11.73;;;9.23;;
7605;SDS011;3844;53.360;9.738;2023-06-19T05:00:59;11.25;;;8.27;;
7605;SDS011;3844;53.360;9.738;2023-06-19T05:03:00;11.55;;;8.50;;
7605;SDS011;3844;53.360;9.738;2023-06-19T05:05:01;11.85;;;8.20;;
7605;SDS011;3844;53.360;9.738;2023-06-19T05:07:06;8.82;;;5.93;;
7605;SDS011;3844;53.360;9.738;2023-06-19T05:09:07;11.05;;;7.75;;
7605;SDS011;3844;53.360;9.738;2023-06-19T05:11:07;11.48;;;8.23;;
7605;SDS011;3844;53.360;9.738;2023-06-19T05:13:08;10.18;;;8.07;;
7605;SDS011;3844;53.360;9.738;2023-06-19T05:15:09;12.18;;;8.95;;
7605;SDS011;3844;53.360;9.738;2023-06-19T05:17:10;10.35;;;8.23;;
7605;SDS011;3844;53.360;9.738;2023-06-19T05:19:10;9.80;;;7.82;;
7605;SDS011;3844;53.360;9.738;2023-06-19T05:21:12;11.13;;;8.98;;
7605;SDS011;3844;53.360;9.738;2023-06-19T05:23:12;11.35;;;8.13;;
7605;SDS011;3844;53.360;9.738;2023-06-19T05:25:13;10.80;;;7.90;;
7605;SDS011;3844;53.360;9.738;2023-06-19T05:27:14;12.10;;;8.90;;
7605;SDS011;3844;53.360;9.738;2023-06-19T05:29:15;13.63;;;8.88;;
7605;SDS011;3844;53.360;9.738;2023-06-19T05:31:15;10.93;;;8.18;;
7605;SDS011;3844;53.360;9.738;2023-06-19T05:33:17;12.23;;;8.63;;
7605;SDS011;3844;53.360;9.738;2023-06-19T05:35:17;12.32;;;9.05;;
7605;SDS011;3844;53.360;9.738;2023-06-19T05:37:18;12.20;;;9.43;;
7605;SDS011;3844;53.360;9.738;2023-06-19T05:39:19;11.50;;;8.65;;
7605;SDS011;3844;53.360;9.738;2023-06-19T05:41:20;11.27;;;8.82;;
7605;SDS011;3844;53.360;9.738;2023-06-19T05:43:22;11.85;;;8.68;;
7605;SDS011;3844;53.360;9.738;2023-06-19T05:45:24;11.32;;;8.38;;
7605;SDS011;3844;53.360;9.738;2023-06-19T05:47:25;11.02;;;8.18;;
7605;SDS011;3844;53.360;9.738;2023-06-19T05:49:26;11.88;;;8.20;;
7605;SDS011;3844;53.360;9.738;2023-06-19T05:51:27;11.65;;;8.90;;
7605;SDS011;3844;53.360;9.738;2023-06-19T05:53:29;12.55;;;8.10;;
7605;SDS011;3844;53.360;9.738;2023-06-19T05:55:34;11.00;;;8.20;;
7605;SDS011;3844;53.360;9.738;2023-06-19T05:57:37;12.70;;;8.68;;
7605;SDS011;3844;53.360;9.738;2023-06-19T05:59:38;11.77;;;8.00;;
7605;SDS011;3844;53.360;9.738;2023-06-19T06:01:38;11.15;;;8.35;;
7605;SDS011;3844;53.360;9.738;2023-06-19T06:03:40;9.68;;;7.95;;
7605;SDS011;3844;53.360;9.738;2023-06-19T06:05:41;11.05;;;8.30;;
7605;SDS011;3844;53.360;9.738;2023-06-19T06:07:42;10.07;;;8.15;;
7605;SDS011;3844;53.360;9.738;2023-06-19T06:09:42;10.02;;;8.07;;
7605;SDS011;3844;53.360;9.738;2023-06-19T06:11:43;11.55;;;8.02;;
7605;SDS011;3844;53.360;9.738;2023-06-19T06:13:44;11.50;;;8.38;;
7605;SDS011;3844;53.360;9.738;2023-06-19T06:15:44;10.95;;;8.20;;
7605;SDS011;3844;53.360;9.738;2023-06-19T06:17:45;12.88;;;8.90;;
7605;SDS011;3844;53.360;9.738;2023-06-19T06:19:46;11.25;;;9.07;;
7605;SDS011;3844;53.360;9.738;2023-06-19T06:21:47;13.52;;;8.45;;
7605;SDS011;3844;53.360;9.738;2023-06-19T06:23:48;11.85;;;7.88;;
7605;SDS011;3844;53.360;9.738;2023-06-19T06:25:48;11.68;;;8.57;;
7605;SDS011;3844;53.360;9.738;2023-06-19T06:27:49;10.90;;;8.07;;
7605;SDS011;3844;53.360;9.738;2023-06-19T06:29:50;9.00;;;7.45;;
7605;SDS011;3844;53.360;9.738;2023-06-19T06:31:50;10.65;;;8.32;;
7605;SDS011;3844;53.360;9.738;2023-06-19T06:33:54;10.48;;;7.88;;
7605;SDS011;3844;53.360;9.738;2023-06-19T06:35:54;10.63;;;7.50;;
7605;SDS011;3844;53.360;9.738;2023-06-19T06:37:57;9.82;;;7.38;;
7605;SDS011;3844;53.360;9.738;2023-06-19T06:39:58;10.00;;;7.57;;
7605;SDS011;3844;53.360;9.738;2023-06-19T06:41:59;10.57;;;7.72;;
7605;SDS011;3844;53.360;9.738;2023-06-19T06:44:00;10.13;;;7.93;;
7605;SDS011;3844;53.360;9.738;2023-06-19T06:46:01;10.88;;;7.78;;
7605;SDS011;3844;53.360;9.738;2023-06-19T06:48:02;10.80;;;8.45;;
7605;SDS011;3844;53.360;9.738;2023-06-19T06:50:03;11.13;;;8.40;;
7605;SDS011;3844;53.360;9.738;2023-06-19T06:52:04;10.55;;;8.20;;
7605;SDS011;3844;53.360;9.738;2023-06-19T06:54:06;10.30;;;7.68;;
7605;SDS011;3844;53.360;9.738;2023-06-19T06:56:06;11.93;;;8.05;;
7605;SDS011;3844;53.360;9.738;2023-06-19T06:58:07;10.38;;;8.30;;
7605;SDS011;3844;53.360;9.738;2023-06-19T07:00:08;11.45;;;7.50;;
7605;SDS011;3844;53.360;9.738;2023-06-19T07:02:11;11.88;;;7.38;;
7605;SDS011;3844;53.360;9.738;2023-06-19T07:04:12;9.68;;;7.60;;
7605;SDS011;3844;53.360;9.738;2023-06-19T07:06:12;11.07;;;7.28;;
7605;SDS011;3844;53.360;9.738;2023-06-19T07:08:13;10.73;;;7.40;;
7605;SDS011;3844;53.360;9.738;2023-06-19T07:10:14;10.82;;;7.35;;
7605;SDS011;3844;53.360;9.738;2023-06-19T07:12:15;9.68;;;6.90;;
7605;SDS011;3844;53.360;9.738;2023-06-19T07:14:15;9.77;;;6.70;;
7605;SDS011;3844;53.360;9.738;2023-06-19T07:18:19;10.38;;;7.50;;
7605;SDS011;3844;53.360;9.738;2023-06-19T07:20:20;9.50;;;7.00;;
7605;SDS011;3844;53.360;9.738;2023-06-19T07:22:21;9.52;;;6.85;;
7605;SDS011;3844;53.360;9.738;2023-06-19T07:24:21;10.00;;;6.95;;
7605;SDS011;3844;53.360;9.738;2023-06-19T07:26:23;10.00;;;6.72;;
7605;SDS011;3844;53.360;9.738;2023-06-19T07:28:24;10.48;;;6.72;;
7605;SDS011;3844;53.360;9.738;2023-06-19T07:30:25;9.45;;;7.18;;
7605;SDS011;3844;53.360;9.738;2023-06-19T07:32:26;9.98;;;6.95;;
7605;SDS011;3844;53.360;9.738;2023-06-19T07:34:26;9.80;;;6.97;;
7605;SDS011;3844;53.360;9.738;2023-06-19T07:36:27;14.52;;;6.95;;
7605;SDS011;3844;53.360;9.738;2023-06-19T07:38:28;10.07;;;7.32;;
7605;SDS011;3844;53.360;9.738;2023-06-19T07:40:29;7.70;;;6.32;;
7605;SDS011;3844;53.360;9.738;2023-06-19T07:42:29;8.50;;;6.53;;
7605;SDS011;3844;53.360;9.738;2023-06-19T07:44:30;8.57;;;6.30;;
7605;SDS011;3844;53.360;9.738;2023-06-19T07:46:31;8.90;;;6.40;;
7605;SDS011;3844;53.360;9.738;2023-06-19T07:48:32;8.05;;;6.20;;
7605;SDS011;3844;53.360;9.738;2023-06-19T07:50:32;8.05;;;6.22;;
7605;SDS011;3844;53.360;9.738;2023-06-19T07:52:33;10.23;;;6.85;;
7605;SDS011;3844;53.360;9.738;2023-06-19T07:54:34;8.23;;;5.88;;
7605;SDS011;3844;53.360;9.738;2023-06-19T07:56:35;10.95;;;6.50;;
7605;SDS011;3844;53.360;9.738;2023-06-19T07:58:35;9.10;;;6.00;;
7605;SDS011;3844;53.360;9.738;2023-06-19T08:00:36;8.15;;;6.53;;
7605;SDS011;3844;53.360;9.738;2023-06-19T08:02:37;9.18;;;6.72;;
7605;SDS011;3844;53.360;9.738;2023-06-19T08:04:41;8.40;;;6.22;;
7605;SDS011;3844;53.360;9.738;2023-06-19T08:06:42;10.98;;;6.43;;
7605;SDS011;3844;53.360;9.738;2023-06-19T08:08:43;20.23;;;8.25;;
7605;SDS011;3844;53.360;9.738;2023-06-19T08:10:44;11.07;;;6.28;;
7605;SDS011;3844;53.360;9.738;2023-06-19T08:12:45;9.18;;;6.15;;
7605;SDS011;3844;53.360;9.738;2023-06-19T08:14:45;7.63;;;6.03;;
7605;SDS011;3844;53.360;9.738;2023-06-19T08:16:46;6.90;;;5.57;;
7605;SDS011;3844;53.360;9.738;2023-06-19T08:18:47;7.97;;;6.28;;
7605;SDS011;3844;53.360;9.738;2023-06-19T08:20:47;8.32;;;5.85;;
7605;SDS011;3844;53.360;9.738;2023-06-19T08:22:49;7.63;;;5.88;;
7605;SDS011;3844;53.360;9.738;2023-06-19T08:24:50;7.30;;;5.93;;
7605;SDS011;3844;53.360;9.738;2023-06-19T08:26:50;7.53;;;5.50;;
7605;SDS011;3844;53.360;9.738;2023-06-19T08:28:52;7.00;;;5.72;;
7605;SDS011;3844;53.360;9.738;2023-06-19T08:30:53;8.38;;;6.32;;
7605;SDS011;3844;53.360;9.738;2023-06-19T08:32:54;7.28;;;5.82;;
7605;SDS011;3844;53.360;9.738;2023-06-19T08:34:54;7.65;;;5.43;;
7605;SDS011;3844;53.360;9.738;2023-06-19T08:36:55;7.00;;;5.45;;
7605;SDS011;3844;53.360;9.738;2023-06-19T08:38:57;8.75;;;5.88;;
7605;SDS011;3844;53.360;9.738;2023-06-19T08:40:57;6.03;;;5.20;;
7605;SDS011;3844;53.360;9.738;2023-06-19T08:42:59;7.50;;;5.97;;
7605;SDS011;3844;53.360;9.738;2023-06-19T08:45:00;9.10;;;5.80;;
7605;SDS011;3844;53.360;9.738;2023-06-19T08:47:04;7.70;;;5.68;;
7605;SDS011;3844;53.360;9.738;2023-06-19T08:49:05;8.98;;;5.93;;
7605;SDS011;3844;53.360;9.738;2023-06-19T08:51:07;7.03;;;5.50;;
7605;SDS011;3844;53.360;9.738;2023-06-19T08:55:11;7.18;;;5.70;;
7605;SDS011;3844;53.360;9.738;2023-06-19T08:57:12;8.88;;;6.13;;
7605;SDS011;3844;53.360;9.738;2023-06-19T08:59:14;7.85;;;5.88;;
7605;SDS011;3844;53.360;9.738;2023-06-19T09:01:18;6.90;;;5.82;;
7605;SDS011;3844;53.360;9.738;2023-06-19T09:03:22;7.28;;;5.60;;
7605;SDS011;3844;53.360;9.738;2023-06-19T09:05:23;7.57;;;6.00;;
7605;SDS011;3844;53.360;9.738;2023-06-19T09:07:25;7.75;;;5.97;;
7605;SDS011;3844;53.360;9.738;2023-06-19T09:09:26;8.95;;;6.03;;
7605;SDS011;3844;53.360;9.738;2023-06-19T09:11:27;7.45;;;5.82;;
7605;SDS011;3844;53.360;9.738;2023-06-19T09:13:28;8.10;;;5.78;;
7605;SDS011;3844;53.360;9.738;2023-06-19T09:15:31;8.63;;;6.68;;
7605;SDS011;3844;53.360;9.738;2023-06-19T09:17:34;7.68;;;5.72;;
7605;SDS011;3844;53.360;9.738;2023-06-19T09:19:35;8.32;;;6.30;;
7605;SDS011;3844;53.360;9.738;2023-06-19T09:21:36;8.15;;;5.97;;
7605;SDS011;3844;53.360;9.738;2023-06-19T09:23:39;9.15;;;6.28;;
7605;SDS011;3844;53.360;9.738;2023-06-19T09:27:50;10.57;;;6.63;;
7605;SDS011;3844;53.360;9.738;2023-06-19T09:29:51;8.73;;;6.00;;
7605;SDS011;3844;53.360;9.738;2023-06-19T09:31:52;10.57;;;6.47;;
7605;SDS011;3844;53.360;9.738;2023-06-19T09:33:53;7.78;;;5.78;;
7605;SDS011;3844;53.360;9.738;2023-06-19T09:35:54;9.65;;;6.03;;
7605;SDS011;3844;53.360;9.738;2023-06-19T09:37:55;7.75;;;6.03;;
7605;SDS011;3844;53.360;9.738;2023-06-19T09:39:58;8.20;;;6.17;;
7605;SDS011;3844;53.360;9.738;2023-06-19T09:42:01;8.77;;;6.35;;
7605;SDS011;3844;53.360;9.738;2023-06-19T09:44:03;9.27;;;6.07;;
7605;SDS011;3844;53.360;9.738;2023-06-19T09:46:12;8.40;;;5.72;;
7605;SDS011;3844;53.360;9.738;2023-06-19T09:48:14;8.68;;;5.95;;
7605;SDS011;3844;53.360;9.738;2023-06-19T09:50:20;9.63;;;5.90;;
7605;SDS011;3844;53.360;9.738;2023-06-19T09:52:28;9.48;;;5.80;;
7605;SDS011;3844;53.360;9.738;2023-06-19T09:56:31;8.02;;;5.65;;
7605;SDS011;3844;53.360;9.738;2023-06-19T09:58:32;8.32;;;5.30;;
7605;SDS011;3844;53.360;9.738;2023-06-19T10:00:34;7.15;;;5.18;;
7605;SDS011;3844;53.360;9.738;2023-06-19T10:02:37;6.95;;;4.90;;
7605;SDS011;3844;53.360;9.738;2023-06-19T10:04:44;7.38;;;4.88;;
7605;SDS011;3844;53.360;9.738;2023-06-19T10:06:46;6.20;;;4.68;;
7605;SDS011;3844;53.360;9.738;2023-06-19T10:08:50;6.50;;;4.95;;
7605;SDS011;3844;53.360;9.738;2023-06-19T10:10:51;7.00;;;5.18;;
7605;SDS011;3844;53.360;9.738;2023-06-19T10:12:58;7.45;;;4.50;;
7605;SDS011;3844;53.360;9.738;2023-06-19T10:15:07;7.60;;;4.28;;
7605;SDS011;3844;53.360;9.738;2023-06-19T10:17:09;7.97;;;4.75;;
7605;SDS011;3844;53.360;9.738;2023-06-19T10:19:16;6.38;;;5.03;;
7605;SDS011;3844;53.360;9.738;2023-06-19T10:21:20;10.25;;;4.95;;
7605;SDS011;3844;53.360;9.738;2023-06-19T10:23:25;6.53;;;5.00;;
7605;SDS011;3844;53.360;9.738;2023-06-19T10:25:29;7.75;;;4.97;;
7605;SDS011;3844;53.360;9.738;2023-06-19T10:27:33;8.50;;;5.40;;
7605;SDS011;3844;53.360;9.738;2023-06-19T10:29:38;6.25;;;4.63;;
7605;SDS011;3844;53.360;9.738;2023-06-19T10:31:39;6.32;;;4.85;;
7605;SDS011;3844;53.360;9.738;2023-06-19T10:33:40;6.55;;;4.60;;
7605;SDS011;3844;53.360;9.738;2023-06-19T10:35:41;6.88;;;4.63;;
7605;SDS011;3844;53.360;9.738;2023-06-19T10:37:42;6.30;;;5.13;;
7605;SDS011;3844;53.360;9.738;2023-06-19T10:39:44;6.30;;;4.93;;
7605;SDS011;3844;53.360;9.738;2023-06-19T10:41:45;7.10;;;5.00;;
7605;SDS011;3844;53.360;9.738;2023-06-19T10:46:14;6.30;;;4.95;;
7605;SDS011;3844;53.360;9.738;2023-06-19T10:48:25;6.43;;;4.63;;
7605;SDS011;3844;53.360;9.738;2023-06-19T10:50:26;6.18;;;4.43;;
7605;SDS011;3844;53.360;9.738;2023-06-19T10:52:29;6.18;;;4.40;;
7605;SDS011;3844;53.360;9.738;2023-06-19T10:54:30;5.43;;;4.28;;
7605;SDS011;3844;53.360;9.738;2023-06-19T10:56:31;7.40;;;4.75;;
7605;SDS011;3844;53.360;9.738;2023-06-19T10:58:32;7.13;;;4.00;;
7605;SDS011;3844;53.360;9.738;2023-06-19T11:00:33;5.88;;;4.25;;
7605;SDS011;3844;53.360;9.738;2023-06-19T11:02:34;6.63;;;4.38;;
7605;SDS011;3844;53.360;9.738;2023-06-19T11:04:37;6.20;;;4.00;;
7605;SDS011;3844;53.360;9.738;2023-06-19T11:06:40;6.47;;;4.47;;
7605;SDS011;3844;53.360;9.738;2023-06-19T11:08:50;6.35;;;4.20;;
7605;SDS011;3844;53.360;9.738;2023-06-19T11:10:52;6.82;;;4.72;;
7605;SDS011;3844;53.360;9.738;2023-06-19T11:12:54;7.40;;;4.72;;
7605;SDS011;3844;53.360;9.738;2023-06-19T11:14:56;7.50;;;4.78;;
7605;SDS011;3844;53.360;9.738;2023-06-19T11:16:56;6.03;;;4.72;;
7605;SDS011;3844;53.360;9.738;2023-06-19T11:18:57;7.75;;;4.47;;
7605;SDS011;3844;53.360;9.738;2023-06-19T11:20:58;6.93;;;4.95;;
7605;SDS011;3844;53.360;9.738;2023-06-19T11:23:00;7.28;;;4.65;;
7605;SDS011;3844;53.360;9.738;2023-06-19T11:25:02;6.53;;;4.50;;
7605;SDS011;3844;53.360;9.738;2023-06-19T11:27:03;7.75;;;4.53;;
7605;SDS011;3844;53.360;9.738;2023-06-19T11:29:15;5.85;;;4.45;;
7605;SDS011;3844;53.360;9.738;2023-06-19T11:31:23;5.50;;;4.07;;
7605;SDS011;3844;53.360;9.738;2023-06-19T11:33:26;5.93;;;4.13;;
7605;SDS011;3844;53.360;9.738;2023-06-19T11:35:32;9.23;;;4.25;;
7605;SDS011;3844;53.360;9.738;2023-06-19T11:37:37;6.10;;;4.13;;
7605;SDS011;3844;53.360;9.738;2023-06-19T11:39:43;8.05;;;4.65;;
7605;SDS011;3844;53.360;9.738;2023-06-19T11:41:48;6.30;;;4.15;;
7605;SDS011;3844;53.360;9.738;2023-06-19T11:43:49;6.32;;;4.75;;
7605;SDS011;3844;53.360;9.738;2023-06-19T11:45:50;6.50;;;4.75;;
7605;SDS011;3844;53.360;9.738;2023-06-19T11:47:52;6.30;;;4.88;;
7605;SDS011;3844;53.360;9.738;2023-06-19T11:49:53;8.77;;;5.15;;
7605;SDS011;3844;53.360;9.738;2023-06-19T11:51:54;7.80;;;5.07;;
7605;SDS011;3844;53.360;9.738;2023-06-19T11:53:55;6.85;;;4.88;;
7605;SDS011;3844;53.360;9.738;2023-06-19T11:55:55;7.28;;;5.25;;
7605;SDS011;3844;53.360;9.738;2023-06-19T11:57:56;8.13;;;5.30;;
7605;SDS011;3844;53.360;9.738;2023-06-19T11:59:57;7.25;;;5.30;;
7605;SDS011;3844;53.360;9.738;2023-06-19T12:01:58;9.52;;;5.97;;
7605;SDS011;3844;53.360;9.738;2023-06-19T12:04:00;9.48;;;5.20;;
7605;SDS011;3844;53.360;9.738;2023-06-19T12:06:01;8.07;;;5.00;;
7605;SDS011;3844;53.360;9.738;2023-06-19T12:08:02;6.75;;;4.93;;
7605;SDS011;3844;53.360;9.738;2023-06-19T12:10:04;6.47;;;4.88;;
7605;SDS011;3844;53.360;9.738;2023-06-19T12:12:10;8.80;;;4.68;;
7605;SDS011;3844;53.360;9.738;2023-06-19T12:14:10;8.20;;;4.40;;
7605;SDS011;3844;53.360;9.738;2023-06-19T12:16:11;6.53;;;4.07;;
7605;SDS011;3844;53.360;9.738;2023-06-19T12:18:13;5.70;;;4.15;;
7605;SDS011;3844;53.360;9.738;2023-06-19T12:20:14;5.78;;;3.70;;
7605;SDS011;3844;53.360;9.738;2023-06-19T12:22:15;8.23;;;3.70;;
7605;SDS011;3844;53.360;9.738;2023-06-19T12:24:16;6.40;;;3.20;;
7605;SDS011;3844;53.360;9.738;2023-06-19T12:26:18;5.28;;;3.15;;
7605;SDS011;3844;53.360;9.738;2023-06-19T12:28:19;6.43;;;3.23;;
7605;SDS011;3844;53.360;9.738;2023-06-19T12:30:21;5.68;;;3.10;;
7605;SDS011;3844;53.360;9.738;2023-06-19T12:32:22;5.40;;;2.92;;
7605;SDS011;3844;53.360;9.738;2023-06-19T12:34:23;5.80;;;2.83;;
7605;SDS011;3844;53.360;9.738;2023-06-19T12:36:24;6.22;;;2.83;;
7605;SDS011;3844;53.360;9.738;2023-06-19T12:38:25;5.88;;;2.90;;
7605;SDS011;3844;53.360;9.738;2023-06-19T12:40:26;6.15;;;2.97;;
7605;SDS011;3844;53.360;9.738;2023-06-19T12:42:27;6.03;;;2.65;;
7605;SDS011;3844;53.360;9.738;2023-06-19T12:44:28;9.38;;;2.83;;
7605;SDS011;3844;53.360;9.738;2023-06-19T12:46:29;5.82;;;2.90;;